African Hhb — D5DI8 — position and weather

sailwx.info

Track history (hours):
 
Tides and Currents Weather Stations Pressure Air Temp Water Temp Dewpoint Dewpoint Depression Visibility Wind Speed Wind Dir Waves Ship Positions

African Hhb

Last reported at 2017-Nov-19 17:59 UTC. Time now 2017-Nov-19 18:07 UTC.
Position N 28°06' W 015°24'.

Length 175 m; draft 8.6 m.

Type: Cargo ship. MMSI: 636015891.

Date/timePositionNaut miles runAvg speedWind from/ knotsBaromVisibWave heightAir tempDewpointWater temp
2017-Nov-19 17:59N 28°06' W 015°24'0 0.0
2017-Nov-19 17:29N 28°06' W 015°24'0 0.1
2017-Nov-19 16:59N 28°06' W 015°24'0 0.0
2017-Nov-19 16:26N 28°06' W 015°24'0 0.0
2017-Nov-19 15:59N 28°06' W 015°24'0 0.2
2017-Nov-19 15:29N 28°06' W 015°24'1 1.7
2017-Nov-19 15:00N 28°07' W 015°23'2 3.7
2017-Nov-19 14:30N 28°07' W 015°21'2 4.7
2017-Nov-19 14:00N 28°09' W 015°19'0 0.3
2017-Nov-19 13:30N 28°09' W 015°19'0 0.2
2017-Nov-19 13:00N 28°09' W 015°19'0 0.9
2017-Nov-19 12:30N 28°09' W 015°19'4 8.2
2017-Nov-19 12:00N 28°13' W 015°18'612.1
2017-Nov-19 11:30N 28°19' W 015°16'612.5
2017-Nov-19 11:00N 28°25' W 015°13'612.6
2017-Nov-19 10:30N 28°31' W 015°11'612.8
2017-Nov-19 10:00N 28°37' W 015°10'612.6
2017-Nov-19 09:30N 28°43' W 015°08'612.8
2017-Nov-19 09:00N 28°49' W 015°06'  
2017-Nov-15 07:52N 47°44' W 006°50'12512.0
2017-Nov-14 21:26N 49°18' W 004°45'713.0
2017-Nov-14 20:52N 49°22' W 004°36'713.2
2017-Nov-14 20:22N 49°25' W 004°27'813.2
2017-Nov-14 19:45N 49°29' W 004°16'313.0
2017-Nov-14 19:30N 49°31' W 004°12'912.8
2017-Nov-14 18:49N 49°35' W 004°00'412.4
2017-Nov-14 18:30N 49°37' W 003°55'1211.9
2017-Nov-14 17:31N 49°43' W 003°39'111.6
2017-Nov-14 17:24N 49°44' W 003°37'511.2
2017-Nov-14 16:57N 49°46' W 003°31'610.8
2017-Nov-14 16:22N 49°49' W 003°22'410.7
2017-Nov-14 16:01N 49°51' W 003°17'510.5
2017-Nov-14 15:30N 49°54' W 003°10'510.6
2017-Nov-14 15:01N 49°57' W 003°03'510.7
2017-Nov-14 14:31N 49°59' W 002°55'611.2
2017-Nov-14 14:01N 50°00' W 002°47'611.8
2017-Nov-14 13:30N 50°02' W 002°38'1812.9
2017-Nov-14 12:04N 50°07' W 002°10'1214.1
2017-Nov-14 11:12N 50°10' W 001°52'314.3
2017-Nov-14 11:00N 50°11' W 001°48'714.2
2017-Nov-14 10:31N 50°13' W 001°37'714.0
2017-Nov-14 10:00N 50°15' W 001°26'1113.5
2017-Nov-14 09:11N 50°18' W 001°10'2911.5
2017-Nov-14 06:38N 50°26' W 000°25'110.5
2017-Nov-14 06:30N 50°26' W 000°23'510.4
2017-Nov-14 06:00N 50°27' W 000°15'510.5
2017-Nov-14 05:30N 50°29' W 000°08'510.4
2017-Nov-14 05:00N 50°30' E 000°00'510.6
2017-Nov-14 04:30N 50°31' E 000°08'611.1
2017-Nov-14 04:00N 50°33' E 000°17'611.6
2017-Nov-14 03:30N 50°35' E 000°25'612.0
2017-Nov-14 03:00N 50°37' E 000°34'612.7
2017-Nov-14 02:30N 50°41' E 000°42'713.0
2017-Nov-14 02:00N 50°44' E 000°51'713.1
2017-Nov-14 01:29N 50°48' E 001°00'613.1
2017-Nov-14 01:00N 50°51' E 001°09'612.9
2017-Nov-14 00:30N 50°55' E 001°17'612.5
2017-Nov-14 00:00N 50°59' E 001°24'611.9
2017-Nov-13 23:30N 51°03' E 001°31'611.2
2017-Nov-13 23:00N 51°07' E 001°37'510.8
2017-Nov-13 22:30N 51°11' E 001°43'510.6
2017-Nov-13 22:00N 51°16' E 001°48'46011.1
2017-Nov-12 04:39N 57°37' E 009°11'211.3
2017-Nov-12 04:28N 57°38' E 009°13'611.6
2017-Nov-12 03:59N 57°42' E 009°20'612.0
2017-Nov-12 03:30N 57°46' E 009°29'510.5
2017-Nov-12 03:00N 57°48' E 009°38'2611.3
2017-Nov-12 00:40N 57°48' E 010°28'210.8
2017-Nov-12 00:30N 57°48' E 010°31'510.5
2017-Nov-12 00:00N 57°48' E 010°41'5 9.9
2017-Nov-11 23:30N 57°46' E 010°49'610.8
2017-Nov-11 22:58N 57°42' E 010°57'510.5
2017-Nov-11 22:29N 57°39' E 011°04'510.9
2017-Nov-11 21:59N 57°35' E 011°12'511.4
2017-Nov-11 21:30N 57°32' E 011°19'611.0
2017-Nov-11 21:00N 57°28' E 011°27'510.6
2017-Nov-11 20:30N 57°23' E 011°30'611.0
2017-Nov-11 20:00N 57°17' E 011°33'611.2
2017-Nov-11 19:30N 57°12' E 011°37'611.2
2017-Nov-11 18:58N 57°06' E 011°40'610.9
2017-Nov-11 18:23N 57°01' E 011°44'109 9.4
2017-Nov-11 06:49N 55°14' E 011°06'3 9.3
2017-Nov-11 06:30N 55°11' E 011°04'5 9.6
2017-Nov-11 06:00N 55°06' E 011°03'510.5
2017-Nov-11 05:30N 55°01' E 011°02'5 9.1
2017-Nov-11 05:00N 54°57' E 010°58'5 9.3
2017-Nov-11 04:30N 54°53' E 010°53'5 9.7
2017-Nov-11 04:00N 54°48' E 010°52'5 9.8
2017-Nov-11 03:30N 54°43' E 010°53'4 8.5
2017-Nov-11 03:00N 54°40' E 010°58'5 9.1
2017-Nov-11 02:30N 54°38' E 011°05'5 9.4
2017-Nov-11 02:00N 54°35' E 011°12'5 9.3
2017-Nov-11 01:30N 54°33' E 011°19'5 9.2
2017-Nov-11 01:00N 54°32' E 011°26'5 9.2
2017-Nov-11 00:30N 54°30' E 011°33'5 9.3
2017-Nov-11 00:00N 54°28' E 011°40'5 9.4
2017-Nov-10 23:30N 54°26' E 011°48'5 9.3
2017-Nov-10 23:01N 54°26' E 011°56'5 9.2
2017-Nov-10 22:30N 54°26' E 012°04'4 8.3
2017-Nov-10 22:00N 54°27' E 012°11'62 9.6
2017-Nov-10 15:29N 54°60' E 013°42'510.2
2017-Nov-10 15:00N 55°02' E 013°50'810.0
2017-Nov-10 14:12N 55°05' E 014°03'310.4
2017-Nov-10 13:54N 55°07' E 014°07'710.7
2017-Nov-10 13:15N 55°12' E 014°15'311.1
2017-Nov-10 12:59N 55°14' E 014°19'511.3
2017-Nov-10 12:31N 55°19' E 014°25'611.4
2017-Nov-10 12:01N 55°23' E 014°30'510.6
2017-Nov-10 11:30N 55°27' E 014°37'610.7
2017-Nov-10 10:55N 55°30' E 014°47'511.1
2017-Nov-10 10:25N 55°32' E 014°55'511.3
2017-Nov-10 09:56N 55°35' E 015°04'511.2
2017-Nov-10 09:30N 55°37' E 015°11'611.4
2017-Nov-10 09:00N 55°39' E 015°21'611.6
2017-Nov-10 08:30N 55°41' E 015°31'611.4
2017-Nov-10 08:00N 55°42' E 015°41'611.6
2017-Nov-10 07:30N 55°43' E 015°51'611.7
2017-Nov-10 07:00N 55°45' E 016°01'611.6
2017-Nov-10 06:30N 55°46' E 016°11'611.6
2017-Nov-10 06:00N 55°48' E 016°21'611.6
2017-Nov-10 05:30N 55°49' E 016°31'611.6
2017-Nov-10 05:00N 55°51' E 016°41'  
Track history (hours):
 
Tides and Currents Weather Stations Pressure Air Temp Water Temp Dewpoint Dewpoint Depression Visibility Wind Speed Wind Dir Waves Ship Positions

African Hhb

Last reported at 2017-Nov-19 17:59 UTC. Time now 2017-Nov-19 18:07 UTC.
Position N 28°06' W 015°24'.

Length 175 m; draft 8.6 m.

Type: Cargo ship. MMSI: 636015891.

Date/timePositionNaut miles runAvg speedWind from/ knotsBaromVisibWave heightAir tempDewpointWater temp
2017-Nov-19 17:59N 28°06' W 015°24'0 0.0
2017-Nov-19 17:29N 28°06' W 015°24'0 0.1
2017-Nov-19 16:59N 28°06' W 015°24'0 0.0
2017-Nov-19 16:26N 28°06' W 015°24'0 0.0
2017-Nov-19 15:59N 28°06' W 015°24'0 0.2
2017-Nov-19 15:29N 28°06' W 015°24'1 1.7
2017-Nov-19 15:00N 28°07' W 015°23'2 3.7
2017-Nov-19 14:30N 28°07' W 015°21'2 4.7
2017-Nov-19 14:00N 28°09' W 015°19'0 0.3
2017-Nov-19 13:30N 28°09' W 015°19'0 0.2
2017-Nov-19 13:00N 28°09' W 015°19'0 0.9
2017-Nov-19 12:30N 28°09' W 015°19'4 8.2
2017-Nov-19 12:00N 28°13' W 015°18'612.1
2017-Nov-19 11:30N 28°19' W 015°16'612.5
2017-Nov-19 11:00N 28°25' W 015°13'612.6
2017-Nov-19 10:30N 28°31' W 015°11'612.8
2017-Nov-19 10:00N 28°37' W 015°10'612.6
2017-Nov-19 09:30N 28°43' W 015°08'612.8
2017-Nov-19 09:00N 28°49' W 015°06'  
2017-Nov-15 07:52N 47°44' W 006°50'12512.0
2017-Nov-14 21:26N 49°18' W 004°45'713.0
2017-Nov-14 20:52N 49°22' W 004°36'713.2
2017-Nov-14 20:22N 49°25' W 004°27'813.2
2017-Nov-14 19:45N 49°29' W 004°16'313.0
2017-Nov-14 19:30N 49°31' W 004°12'912.8
2017-Nov-14 18:49N 49°35' W 004°00'412.4
2017-Nov-14 18:30N 49°37' W 003°55'1211.9
2017-Nov-14 17:31N 49°43' W 003°39'111.6
2017-Nov-14 17:24N 49°44' W 003°37'511.2
2017-Nov-14 16:57N 49°46' W 003°31'610.8
2017-Nov-14 16:22N 49°49' W 003°22'410.7
2017-Nov-14 16:01N 49°51' W 003°17'510.5
2017-Nov-14 15:30N 49°54' W 003°10'510.6
2017-Nov-14 15:01N 49°57' W 003°03'510.7
2017-Nov-14 14:31N 49°59' W 002°55'611.2
2017-Nov-14 14:01N 50°00' W 002°47'611.8
2017-Nov-14 13:30N 50°02' W 002°38'1812.9
2017-Nov-14 12:04N 50°07' W 002°10'1214.1
2017-Nov-14 11:12N 50°10' W 001°52'314.3
2017-Nov-14 11:00N 50°11' W 001°48'714.2
2017-Nov-14 10:31N 50°13' W 001°37'714.0
2017-Nov-14 10:00N 50°15' W 001°26'1113.5
2017-Nov-14 09:11N 50°18' W 001°10'2911.5
2017-Nov-14 06:38N 50°26' W 000°25'110.5
2017-Nov-14 06:30N 50°26' W 000°23'510.4
2017-Nov-14 06:00N 50°27' W 000°15'510.5
2017-Nov-14 05:30N 50°29' W 000°08'510.4
2017-Nov-14 05:00N 50°30' E 000°00'510.6
2017-Nov-14 04:30N 50°31' E 000°08'611.1
2017-Nov-14 04:00N 50°33' E 000°17'611.6
2017-Nov-14 03:30N 50°35' E 000°25'612.0
2017-Nov-14 03:00N 50°37' E 000°34'612.7
2017-Nov-14 02:30N 50°41' E 000°42'713.0
2017-Nov-14 02:00N 50°44' E 000°51'713.1
2017-Nov-14 01:29N 50°48' E 001°00'613.1
2017-Nov-14 01:00N 50°51' E 001°09'612.9
2017-Nov-14 00:30N 50°55' E 001°17'612.5
2017-Nov-14 00:00N 50°59' E 001°24'611.9
2017-Nov-13 23:30N 51°03' E 001°31'611.2
2017-Nov-13 23:00N 51°07' E 001°37'510.8
2017-Nov-13 22:30N 51°11' E 001°43'510.6
2017-Nov-13 22:00N 51°16' E 001°48'46011.1
2017-Nov-12 04:39N 57°37' E 009°11'211.3
2017-Nov-12 04:28N 57°38' E 009°13'611.6
2017-Nov-12 03:59N 57°42' E 009°20'612.0
2017-Nov-12 03:30N 57°46' E 009°29'510.5
2017-Nov-12 03:00N 57°48' E 009°38'2611.3
2017-Nov-12 00:40N 57°48' E 010°28'210.8
2017-Nov-12 00:30N 57°48' E 010°31'510.5
2017-Nov-12 00:00N 57°48' E 010°41'5 9.9
2017-Nov-11 23:30N 57°46' E 010°49'610.8
2017-Nov-11 22:58N 57°42' E 010°57'510.5
2017-Nov-11 22:29N 57°39' E 011°04'510.9
2017-Nov-11 21:59N 57°35' E 011°12'511.4
2017-Nov-11 21:30N 57°32' E 011°19'611.0
2017-Nov-11 21:00N 57°28' E 011°27'510.6
2017-Nov-11 20:30N 57°23' E 011°30'611.0
2017-Nov-11 20:00N 57°17' E 011°33'611.2
2017-Nov-11 19:30N 57°12' E 011°37'611.2
2017-Nov-11 18:58N 57°06' E 011°40'610.9
2017-Nov-11 18:23N 57°01' E 011°44'109 9.4
2017-Nov-11 06:49N 55°14' E 011°06'3 9.3
2017-Nov-11 06:30N 55°11' E 011°04'5 9.6
2017-Nov-11 06:00N 55°06' E 011°03'510.5
2017-Nov-11 05:30N 55°01' E 011°02'5 9.1
2017-Nov-11 05:00N 54°57' E 010°58'5 9.3
2017-Nov-11 04:30N 54°53' E 010°53'5 9.7
2017-Nov-11 04:00N 54°48' E 010°52'5 9.8
2017-Nov-11 03:30N 54°43' E 010°53'4 8.5
2017-Nov-11 03:00N 54°40' E 010°58'5 9.1
2017-Nov-11 02:30N 54°38' E 011°05'5 9.4
2017-Nov-11 02:00N 54°35' E 011°12'5 9.3
2017-Nov-11 01:30N 54°33' E 011°19'5 9.2
2017-Nov-11 01:00N 54°32' E 011°26'5 9.2
2017-Nov-11 00:30N 54°30' E 011°33'5 9.3
2017-Nov-11 00:00N 54°28' E 011°40'5 9.4
2017-Nov-10 23:30N 54°26' E 011°48'5 9.3
2017-Nov-10 23:01N 54°26' E 011°56'5 9.2
2017-Nov-10 22:30N 54°26' E 012°04'4 8.3
2017-Nov-10 22:00N 54°27' E 012°11'62 9.6
2017-Nov-10 15:29N 54°60' E 013°42'510.2
2017-Nov-10 15:00N 55°02' E 013°50'810.0
2017-Nov-10 14:12N 55°05' E 014°03'310.4
2017-Nov-10 13:54N 55°07' E 014°07'710.7
2017-Nov-10 13:15N 55°12' E 014°15'311.1
2017-Nov-10 12:59N 55°14' E 014°19'511.3
2017-Nov-10 12:31N 55°19' E 014°25'611.4
2017-Nov-10 12:01N 55°23' E 014°30'510.6
2017-Nov-10 11:30N 55°27' E 014°37'610.7
2017-Nov-10 10:55N 55°30' E 014°47'511.1
2017-Nov-10 10:25N 55°32' E 014°55'511.3
2017-Nov-10 09:56N 55°35' E 015°04'511.2
2017-Nov-10 09:30N 55°37' E 015°11'611.4
2017-Nov-10 09:00N 55°39' E 015°21'611.6
2017-Nov-10 08:30N 55°41' E 015°31'611.4
2017-Nov-10 08:00N 55°42' E 015°41'611.6
2017-Nov-10 07:30N 55°43' E 015°51'611.7
2017-Nov-10 07:00N 55°45' E 016°01'611.6
2017-Nov-10 06:30N 55°46' E 016°11'611.6
2017-Nov-10 06:00N 55°48' E 016°21'611.6
2017-Nov-10 05:30N 55°49' E 016°31'611.6
2017-Nov-10 05:00N 55°51' E 016°41'  

Dump ship's entire track history